| Date | Time | Temp. (oF) | Dew Point (oF) | Rel. Hum. (%) | Press. (in.) | Wind Dir. | Wind Speed (mph) | Hourly Rainfall (in.) |
|
|---|---|---|---|---|---|---|---|---|---|
| 1 | 04/30 | 00:00 | 56 | 45 | 67 | 29.65 | W | 0 | 0.00 |
| 2 | 04/29 | 23:00 | 56 | 43 | 63 | 29.65 | SW | 0 | 0.00 |
| 3 | 04/29 | 22:00 | 59 | 42 | 54 | 29.65 | SSW | 0 | 0.00 |
| 4 | 04/29 | 21:00 | 63 | 41 | 46 | 29.63 | SSW | 0 | 0.00 |
| 5 | 04/29 | 20:00 | 68 | 40 | 37 | 29.62 | SSW | 0 | 0.00 |
| 6 | 04/29 | 19:00 | 71 | 40 | 34 | 29.62 | S | 2 | 0.00 |
| 7 | 04/29 | 18:00 | 71 | 40 | 33 | 29.62 | W | 9 | 0.00 |
| 8 | 04/29 | 17:00 | 73 | 40 | 31 | 29.63 | NW | 3 | 0.00 |
| 9 | 04/29 | 16:00 | 72 | 40 | 32 | 29.64 | WSW | 9 | 0.00 |
| 10 | 04/29 | 15:00 | 73 | 44 | 36 | 29.66 | WSW | 4 | 0.00 |
| 11 | 04/29 | 14:00 | 72 | 43 | 36 | 29.68 | W | 10 | 0.00 |
| 12 | 04/29 | 13:00 | 70 | 43 | 38 | 29.70 | NNW | 7 | 0.00 |
| 13 | 04/29 | 12:00 | 68 | 48 | 49 | 29.73 | WNW | 3 | 0.00 |
| 14 | 04/29 | 11:00 | 65 | 45 | 50 | 29.75 | SW | 3 | 0.00 |
| 15 | 04/29 | 10:00 | 62 | 45 | 54 | 29.77 | W | 3 | 0.00 |
| 16 | 04/29 | 09:00 | 59 | 43 | 57 | 29.78 | WNW | 6 | 0.00 |
| 17 | 04/29 | 08:00 | 50 | 46 | 89 | 29.80 | SW | 3 | 0.00 |
| 18 | 04/29 | 07:00 | 42 | 39 | 92 | 29.79 | SSW | 0 | 0.00 |
| 19 | 04/29 | 06:00 | 43 | 39 | 89 | 29.79 | WSW | 0 | 0.00 |
| 20 | 04/29 | 05:00 | 45 | 40 | 83 | 29.78 | S | 0 | 0.00 |
| 21 | 04/29 | 04:00 | 45 | 40 | 85 | 29.79 | WSW | 0 | 0.00 |
| 22 | 04/29 | 03:00 | 47 | 41 | 80 | 29.79 | W | 0 | 0.00 |
| 23 | 04/29 | 02:00 | 47 | 39 | 76 | 29.80 | SSW | 0 | 0.00 |
| 24 | 04/29 | 01:00 | 50 | 40 | 71 | 29.81 | W | 3 | 0.00 |